Time;durP1;ratioP1;P1;durP2;ratioP2;P2;SDS_P1;SDS_P2;PMS_P1;PMS_P2;Temp;Humidity;BMP_temperature;BMP_pressure;BME280_temperature;BME280_humidity;BME280_pressure;Samples;Min_cycle;Max_cycle;Signal;HPM_P1;HPM_P2
2021/12/17 00:01:40;;;;;;;19.20;8.57;;;3.60;86.60;;;;;;5054612;28;20064;-68
2021/12/17 00:04:24;;;;;;;28.58;8.32;;;3.60;86.80;;;;;;5035669;28;20033;-66
2021/12/17 00:06:49;;;;;;;17.25;8.35;;;3.60;86.90;;;;;;5052979;28;20480;-68
2021/12/17 00:09:15;;;;;;;15.32;8.13;;;3.60;86.90;;;;;;5053326;28;20113;-67
2021/12/17 00:11:41;;;;;;;17.08;8.20;;;3.60;87.00;;;;;;5053125;28;20089;-69
2021/12/17 00:14:06;;;;;;;18.30;8.57;;;3.60;87.10;;;;;;5054403;28;20040;-68
2021/12/17 00:16:37;;;;;;;22.90;8.80;;;3.70;87.20;;;;;;5056094;28;20086;-68
2021/12/17 00:19:23;;;;;;;18.55;8.18;;;3.70;87.30;;;;;;5054508;28;20137;-68
2021/12/17 00:48:23;;;;;;;18.38;8.57;;;4.10;86.90;;;;;;5055593;28;20051;-68
2021/12/17 00:49:18;;;;;;;19.98;9.48;;;4.10;86.80;;;;;;5052576;28;20032;-68
2021/12/17 00:54:31;;;;;;;18.33;9.27;;;4.10;86.80;;;;;;5057065;28;20033;-68
2021/12/17 00:56:59;;;;;;;19.85;9.77;;;4.10;87.50;;;;;;5055547;28;20592;-68
2021/12/17 00:59:26;;;;;;;18.58;9.63;;;4.10;86.60;;;;;;5053181;28;20029;-67
2021/12/17 01:01:56;;;;;;;19.23;9.68;;;4.20;86.60;;;;;;5052454;28;21011;-67
2021/12/17 01:04:21;;;;;;;21.00;9.95;;;4.20;86.60;;;;;;5055617;28;20032;-68
2021/12/17 01:06:47;;;;;;;21.90;10.77;;;4.20;86.60;;;;;;5051120;28;20040;-68
2021/12/17 01:09:17;;;;;;;21.13;10.55;;;4.20;86.50;;;;;;5055471;28;20037;-68
2021/12/17 01:11:43;;;;;;;21.98;10.38;;;4.30;86.50;;;;;;5051938;28;20119;-67
2021/12/17 01:14:10;;;;;;;20.95;10.25;;;4.30;86.50;;;;;;5052462;28;20028;-67
2021/12/17 01:16:36;;;;;;;19.58;10.43;;;4.30;86.60;;;;;;5053666;28;20029;-68
2021/12/17 01:42:41;;;;;;;21.75;11.50;;;4.50;86.50;;;;;;5052573;28;20033;-68
2021/12/17 01:45:08;;;;;;;20.90;11.57;;;4.50;86.50;;;;;;5054944;28;20044;-68
2021/12/17 01:47:33;;;;;;;21.92;11.05;;;4.50;86.40;;;;;;5054091;28;20581;-68
2021/12/17 02:00:56;;;;;;;15.27;8.57;;;4.60;86.20;;;;;;5053869;28;20313;-68
2021/12/17 02:03:22;;;;;;;19.70;10.35;;;4.60;86.10;;;;;;5056973;28;20884;-68
2021/12/17 02:05:48;;;;;;;21.10;11.23;;;4.60;86.30;;;;;;5052660;28;20033;-68
2021/12/17 02:08:14;;;;;;;21.05;11.73;;;4.70;86.30;;;;;;5051014;28;20029;-68
2021/12/17 02:32:07;;;;;;;19.52;10.65;;;4.80;86.00;;;;;;5053800;28;20530;-68
2021/12/17 02:37:16;;;;;;;23.85;11.90;;;4.80;85.90;;;;;;5055000;28;20028;-68
2021/12/17 02:47:39;;;;;;;22.30;11.70;;;4.80;86.00;;;;;;5056783;28;20618;-68
2021/12/17 02:50:07;;;;;;;20.30;11.90;;;4.80;85.90;;;;;;5055351;28;20029;-68
2021/12/17 02:52:36;;;;;;;21.15;11.52;;;4.80;85.80;;;;;;5056903;28;20029;-68
2021/12/17 02:55:06;;;;;;;20.75;11.60;;;4.80;85.80;;;;;;5038385;28;20040;-67
2021/12/17 02:57:33;;;;;;;21.63;12.10;;;4.80;85.80;;;;;;5055623;28;20029;-68
2021/12/17 03:00:01;;;;;;;22.08;11.52;;;4.80;85.70;;;;;;5057197;28;20438;-68
2021/12/17 03:02:30;;;;;;;22.10;11.63;;;4.80;85.80;;;;;;5055559;28;20029;-68
2021/12/17 03:04:56;;;;;;;22.27;12.13;;;4.80;85.80;;;;;;5059087;28;20518;-68
2021/12/17 03:07:22;;;;;;;24.10;11.82;;;4.80;85.80;;;;;;5055672;28;20037;-68
2021/12/17 03:10:08;;;;;;;23.85;12.50;;;4.80;85.70;;;;;;5053458;28;20086;-68
2021/12/17 03:12:57;;;;;;;25.83;12.55;;;4.80;86.60;;;;;;5053821;28;20033;-68
2021/12/17 03:26:17;;;;;;;29.10;13.43;;;4.80;85.80;;;;;;5039458;28;20044;-67
2021/12/17 03:28:47;;;;;;;24.80;12.90;;;4.80;85.80;;;;;;5053522;28;20467;-68
2021/12/17 03:31:13;;;;;;;28.48;14.48;;;4.70;85.80;;;;;;5057257;28;20040;-68
2021/12/17 03:33:42;;;;;;;26.17;13.63;;;4.80;85.90;;;;;;5055532;28;20045;-68
2021/12/17 03:36:11;;;;;;;28.17;13.43;;;4.80;86.00;;;;;;5055435;28;20029;-67
2021/12/17 03:38:38;;;;;;;26.88;12.93;;;4.70;86.00;;;;;;5057099;28;20033;-68
2021/12/17 03:41:34;;;;;;;27.33;13.65;;;4.70;86.00;;;;;;5057013;28;20029;-67
2021/12/17 03:43:53;;;;;;;29.55;13.32;;;4.80;86.10;;;;;;5056487;28;20052;-68
2021/12/17 03:46:20;;;;;;;29.73;14.02;;;4.80;86.10;;;;;;5056168;28;20039;-68
2021/12/17 03:48:46;;;;;;;29.25;13.57;;;4.80;86.10;;;;;;5054018;28;21965;-67
2021/12/17 03:51:17;;;;;;;29.58;14.48;;;4.80;86.10;;;;;;5056377;28;20036;-67
2021/12/17 03:53:54;;;;;;;26.10;13.10;;;4.80;86.20;;;;;;5056285;28;20044;-68
2021/12/17 03:56:21;;;;;;;31.63;14.02;;;4.80;86.30;;;;;;5054820;28;20654;-67
2021/12/17 03:58:49;;;;;;;29.45;13.43;;;4.80;86.30;;;;;;5057588;28;20120;-68
2021/12/17 04:01:15;;;;;;;32.15;13.52;;;4.80;86.30;;;;;;5057160;28;20127;-68
2021/12/17 04:03:41;;;;;;;28.17;14.02;;;4.80;86.30;;;;;;5055639;28;20140;-67
2021/12/17 04:06:07;;;;;;;30.35;13.77;;;4.80;86.30;;;;;;5054793;28;20127;-67
2021/12/17 04:08:33;;;;;;;28.27;12.75;;;4.80;86.30;;;;;;5052919;28;20033;-67
2021/12/17 04:11:06;;;;;;;28.63;13.45;;;4.80;86.30;;;;;;5040655;28;20041;-67
2021/12/17 04:13:37;;;;;;;26.20;12.27;;;4.80;86.30;;;;;;5055394;28;20028;-68
2021/12/17 04:16:09;;;;;;;27.20;12.35;;;4.80;86.40;;;;;;5054654;28;20111;-67
2021/12/17 04:18:41;;;;;;;29.17;13.50;;;4.80;86.40;;;;;;5054671;28;20025;-68
2021/12/17 04:21:15;;;;;;;28.27;13.30;;;4.80;86.50;;;;;;5054319;28;20056;-68
2021/12/17 04:23:42;;;;;;;29.27;13.10;;;4.80;86.40;;;;;;5056676;28;20107;-68
2021/12/17 04:26:08;;;;;;;24.80;12.25;;;4.90;86.50;;;;;;5054357;28;20512;-67
2021/12/17 04:28:40;;;;;;;28.92;12.98;;;4.80;86.30;;;;;;5056996;28;20115;-68
2021/12/17 04:31:06;;;;;;;25.95;13.00;;;4.80;86.50;;;;;;5053901;28;20665;-67
2021/12/17 04:33:31;;;;;;;30.02;13.77;;;4.80;86.50;;;;;;5054989;28;20044;-68
2021/12/17 04:35:57;;;;;;;27.40;13.07;;;4.80;86.60;;;;;;5054620;28;20506;-67
2021/12/17 04:38:25;;;;;;;28.15;13.27;;;4.80;86.60;;;;;;5052394;28;20498;-68
2021/12/17 04:40:52;;;;;;;24.73;13.25;;;4.80;86.50;;;;;;5051696;28;20033;-68
2021/12/17 04:46:24;;;;;;;28.50;13.43;;;4.90;86.60;;;;;;5057172;28;20104;-67
2021/12/17 04:59:47;;;;;;;26.30;12.45;;;4.90;86.50;;;;;;5051818;28;20071;-68
2021/12/17 05:02:15;;;;;;;26.52;12.65;;;5.00;86.60;;;;;;5051708;28;20051;-67
2021/12/17 05:04:42;;;;;;;27.10;13.40;;;5.00;86.60;;;;;;5052195;28;20032;-68
2021/12/17 05:07:10;;;;;;;31.20;13.93;;;4.90;86.60;;;;;;5053335;28;20512;-66
2021/12/17 05:09:52;;;;;;;24.20;12.55;;;5.00;86.60;;;;;;5055069;28;20110;-68
2021/12/17 05:20:50;;;;;;;27.52;13.23;;;5.10;86.60;;;;;;5050794;28;20079;-68
2021/12/17 05:23:19;;;;;;;;;;;5.00;86.50;;;;;;5054081;28;20043;-68
2021/12/17 05:25:45;;;;;;;27.67;12.48;;;5.10;86.80;;;;;;5054331;28;19917;-68
2021/12/17 05:28:11;;;;;;;30.65;14.13;;;5.10;86.40;;;;;;5056193;28;20580;-68
2021/12/17 05:30:39;;;;;;;30.00;14.82;;;5.10;86.50;;;;;;5055733;28;20032;-68
2021/12/17 05:33:04;;;;;;;32.30;14.63;;;5.10;86.50;;;;;;5054802;28;20029;-68
2021/12/17 05:35:30;;;;;;;32.22;13.40;;;5.10;86.50;;;;;;5056882;28;20488;-67
2021/12/17 05:37:56;;;;;;;29.58;13.95;;;5.10;86.50;;;;;;5036520;28;20131;-68
2021/12/17 05:40:22;;;;;;;28.77;13.18;;;5.10;86.40;;;;;;5054506;28;20107;-68
2021/12/17 05:42:50;;;;;;;34.50;14.20;;;5.10;86.50;;;;;;5054841;28;20094;-68
2021/12/17 05:45:33;;;;;;;33.78;13.90;;;5.10;86.50;;;;;;5057063;28;20063;-68
2021/12/17 05:48:05;;;;;;;33.50;13.98;;;5.20;86.50;;;;;;5054799;28;20052;-68
2021/12/17 05:50:32;;;;;;;37.08;15.10;;;5.20;86.50;;;;;;5056261;28;20028;-68
2021/12/17 05:52:57;;;;;;;37.20;14.13;;;5.10;86.20;;;;;;5055243;28;20131;-68
2021/12/17 05:55:23;;;;;;;36.45;15.15;;;5.10;86.30;;;;;;5056233;28;20103;-68
2021/12/17 05:57:49;;;;;;;38.65;15.00;;;5.10;86.40;;;;;;5054063;28;20111;-67
2021/12/17 06:00:15;;;;;;;44.80;16.00;;;5.10;86.50;;;;;;5055413;28;20043;-68
2021/12/17 06:02:41;;;;;;;40.22;14.90;;;5.10;86.60;;;;;;5054534;28;20041;-68
2021/12/17 06:05:07;;;;;;;43.25;16.50;;;5.10;86.60;;;;;;5056503;28;20439;-68
2021/12/17 06:07:32;;;;;;;39.90;15.10;;;5.10;86.60;;;;;;5055429;28;20040;-68
2021/12/17 06:10:01;;;;;;;34.33;13.75;;;5.10;86.60;;;;;;5056613;28;20174;-68
2021/12/17 06:12:27;;;;;;;42.67;15.23;;;5.10;86.60;;;;;;5053115;28;20166;-68
2021/12/17 06:14:52;;;;;;;37.45;15.00;;;5.10;86.80;;;;;;5055270;28;20043;-68
2021/12/17 06:17:18;;;;;;;37.92;15.52;;;5.10;86.70;;;;;;5054318;28;20488;-68
2021/12/17 06:19:43;;;;;;;38.50;14.50;;;5.10;86.70;;;;;;5060198;28;20037;-68
2021/12/17 06:22:09;;;;;;;42.55;16.27;;;5.10;86.80;;;;;;5060659;28;20452;-68
2021/12/17 06:24:34;;;;;;;38.35;14.30;;;5.10;86.80;;;;;;5060729;28;20029;-68
2021/12/17 06:27:00;;;;;;;33.63;14.20;;;5.10;86.80;;;;;;5059752;28;20028;-68
2021/12/17 06:29:26;;;;;;;40.83;14.70;;;5.10;86.90;;;;;;5060675;28;20454;-68
2021/12/17 06:31:51;;;;;;;41.55;15.73;;;5.10;86.90;;;;;;5042712;28;20412;-68
2021/12/17 06:34:17;;;;;;;39.53;15.05;;;5.10;87.00;;;;;;5061048;28;20028;-67
2021/12/17 06:36:43;;;;;;;45.58;17.10;;;5.10;87.00;;;;;;5059892;28;20032;-68
2021/12/17 06:39:09;;;;;;;48.63;19.27;;;5.10;87.00;;;;;;5060453;28;20032;-68
2021/12/17 06:41:35;;;;;;;44.03;17.42;;;5.10;87.00;;;;;;5060585;28;20029;-67
2021/12/17 06:44:01;;;;;;;44.90;17.10;;;5.10;87.00;;;;;;5060029;28;20489;-68
2021/12/17 06:49:09;;;;;;;42.75;16.42;;;5.20;87.00;;;;;;5059809;28;20045;-68
2021/12/17 07:10:28;;;;;;;29.95;12.98;;;5.20;87.20;;;;;;5054561;28;21546;-68
2021/12/17 07:34:13;;;;;;;15.23;9.38;;;5.40;87.30;;;;;;5058692;28;20064;-67
2021/12/17 07:39:28;;;;;;;21.23;11.93;;;5.40;87.20;;;;;;5022290;28;20029;-68
2021/12/17 07:41:54;;;;;;;15.95;9.40;;;5.40;87.00;;;;;;5058982;28;20360;-68
2021/12/17 07:44:19;;;;;;;12.63;7.80;;;5.40;87.00;;;;;;5058538;28;20540;-68
2021/12/17 07:46:45;;;;;;;16.00;9.18;;;5.40;87.00;;;;;;5054877;28;20120;-68
2021/12/17 07:49:10;;;;;;;16.98;9.95;;;5.40;87.00;;;;;;5058365;28;20585;-68
2021/12/17 07:51:36;;;;;;;18.55;10.52;;;5.40;87.20;;;;;;5056414;28;20063;-68
2021/12/17 07:54:02;;;;;;;17.60;9.68;;;5.40;87.20;;;;;;5057826;28;20081;-68
2021/12/17 07:56:37;;;;;;;17.83;9.55;;;5.40;87.20;;;;;;5055814;28;20048;-68
2021/12/17 07:59:06;;;;;;;;;;;5.40;87.20;;;;;;5055758;28;20115;-68
2021/12/17 08:01:32;;;;;;;16.88;8.77;;;5.50;87.50;;;;;;5054658;28;19913;-68
2021/12/17 08:03:58;;;;;;;19.48;9.65;;;5.50;86.90;;;;;;5056581;28;20036;-67
2021/12/17 08:06:23;;;;;;;19.77;10.68;;;5.50;87.00;;;;;;5053977;28;20037;-67
2021/12/17 08:08:49;;;;;;;16.58;9.30;;;5.50;87.20;;;;;;5056097;28;20455;-67
2021/12/17 08:11:15;;;;;;;18.90;10.15;;;5.50;87.20;;;;;;5054127;28;20132;-68
2021/12/17 08:13:43;;;;;;;18.77;9.93;;;5.50;87.20;;;;;;5054655;28;20129;-63
2021/12/17 08:26:55;;;;;;;16.27;9.85;;;5.50;87.20;;;;;;5054481;28;20064;-65
2021/12/17 08:31:48;;;;;;;21.33;11.63;;;5.60;87.20;;;;;;5055135;28;20043;-68
2021/12/17 08:34:14;;;;;;;18.40;10.25;;;5.60;87.10;;;;;;5056317;28;20438;-67
2021/12/17 08:36:39;;;;;;;18.60;10.77;;;5.60;87.00;;;;;;5055483;28;20041;-67
2021/12/17 08:39:05;;;;;;;17.80;10.23;;;5.60;87.00;;;;;;5057300;28;20043;-68
2021/12/17 08:41:31;;;;;;;17.60;9.60;;;5.60;87.00;;;;;;5055125;28;20033;-68
2021/12/17 08:43:56;;;;;;;17.23;9.98;;;5.60;87.00;;;;;;5055639;28;20064;-68
2021/12/17 08:46:22;;;;;;;17.33;10.10;;;5.60;87.10;;;;;;5053955;28;20131;-68
2021/12/17 08:48:48;;;;;;;17.63;9.40;;;5.60;87.10;;;;;;5055917;28;20047;-65
2021/12/17 08:51:14;;;;;;;18.40;10.80;;;5.60;87.00;;;;;;5057114;28;20045;-68
2021/12/17 08:53:40;;;;;;;23.17;12.38;;;5.70;87.00;;;;;;5056986;28;20089;-68
2021/12/17 08:56:06;;;;;;;16.45;9.70;;;5.70;87.00;;;;;;5055037;28;20028;-68
2021/12/17 08:58:33;;;;;;;16.65;9.43;;;5.70;86.90;;;;;;5056761;28;20037;-68
2021/12/17 09:01:02;;;;;;;17.10;10.00;;;5.70;86.90;;;;;;5055528;28;20119;-68
2021/12/17 09:03:28;;;;;;;15.32;9.85;;;5.70;86.90;;;;;;5051601;28;20041;-67
2021/12/17 09:05:54;;;;;;;17.17;10.75;;;5.70;86.80;;;;;;5056921;28;20055;-65
2021/12/17 09:08:21;;;;;;;18.40;10.48;;;5.70;87.60;;;;;;5057435;28;20040;-68
2021/12/17 09:10:48;;;;;;;14.82;9.32;;;5.80;86.80;;;;;;5054197;28;20028;-66
2021/12/17 09:13:14;;;;;;;17.38;10.38;;;5.80;86.80;;;;;;5055216;28;20044;-65
2021/12/17 09:15:40;;;;;;;17.40;9.57;;;5.80;86.80;;;;;;5056289;28;20047;-65
2021/12/17 09:18:06;;;;;;;15.25;9.02;;;5.80;86.70;;;;;;5055541;28;20028;-68
2021/12/17 09:20:32;;;;;;;17.67;9.82;;;5.80;86.80;;;;;;5057148;28;20036;-68
2021/12/17 09:22:57;;;;;;;15.45;9.88;;;5.80;86.70;;;;;;5057977;28;20044;-66
2021/12/17 09:25:23;;;;;;;17.38;9.93;;;5.80;86.60;;;;;;5057174;28;20033;-67
2021/12/17 09:27:49;;;;;;;23.45;11.73;;;5.80;86.60;;;;;;5056691;28;20049;-67
2021/12/17 09:30:16;;;;;;;20.25;11.38;;;5.80;86.60;;;;;;5054530;28;20044;-65
2021/12/17 09:32:43;;;;;;;20.30;11.63;;;5.80;86.60;;;;;;5054678;28;20033;-65
2021/12/17 09:35:10;;;;;;;16.23;10.30;;;5.80;86.60;;;;;;5055149;28;20029;-65
2021/12/17 09:37:37;;;;;;;17.60;11.25;;;5.80;86.70;;;;;;5056132;28;20025;-63
2021/12/17 09:40:06;;;;;;;16.88;11.80;;;5.80;86.70;;;;;;5057825;28;20102;-69
2021/12/17 09:42:33;;;;;;;13.75;9.25;;;5.90;86.60;;;;;;5054549;28;20500;-66
2021/12/17 09:44:59;;;;;;;14.30;9.05;;;5.90;86.50;;;;;;5057601;28;20124;-68
2021/12/17 09:47:25;;;;;;;13.77;9.38;;;6.00;86.50;;;;;;5055621;28;20182;-65
2021/12/17 09:49:56;;;;;;;13.85;9.48;;;6.00;86.40;;;;;;5056264;28;20064;-65
2021/12/17 09:52:22;;;;;;;12.25;8.60;;;6.00;86.30;;;;;;5056642;28;20025;-68
2021/12/17 09:54:48;;;;;;;13.63;9.10;;;6.00;86.30;;;;;;5061921;28;20511;-65
2021/12/17 09:57:13;;;;;;;12.65;9.05;;;6.00;86.20;;;;;;5058239;28;20040;-69
2021/12/17 09:59:39;;;;;;;14.10;8.75;;;6.00;86.10;;;;;;5059325;28;20036;-69
2021/12/17 10:02:06;;;;;;;13.90;8.98;;;6.00;86.10;;;;;;5060497;28;20037;-67
2021/12/17 10:04:32;;;;;;;14.80;9.38;;;6.10;86.10;;;;;;5059252;28;20025;-68
2021/12/17 10:07:20;;;;;;;15.40;10.85;;;6.10;86.00;;;;;;5059387;28;20614;-67
2021/12/17 10:09:51;;;;;;;16.05;10.20;;;6.10;85.60;;;;;;5058371;28;20035;-67
2021/12/17 10:12:22;;;;;;;15.15;10.55;;;6.20;85.90;;;;;;5057452;28;20116;-66
2021/12/17 10:15:04;;;;;;;15.38;10.23;;;6.10;85.80;;;;;;5058290;28;20043;-68
2021/12/17 10:17:30;;;;;;;13.48;9.93;;;6.20;86.00;;;;;;5061085;28;20082;-67
2021/12/17 10:19:56;;;;;;;18.17;11.25;;;6.20;86.00;;;;;;5058560;28;20029;-68
2021/12/17 10:22:23;;;;;;;13.05;9.18;;;6.20;85.80;;;;;;5060468;28;20039;-66
2021/12/17 10:24:57;;;;;;;17.55;12.40;;;6.30;85.80;;;;;;5060380;28;20236;-68
2021/12/17 10:27:27;;;;;;;20.40;14.02;;;6.30;85.40;;;;;;5059761;28;20388;-67
2021/12/17 10:29:53;;;;;;;15.13;11.02;;;6.30;85.50;;;;;;5058441;28;20106;-67
2021/12/17 10:32:22;;;;;;;12.38;9.45;;;6.30;85.40;;;;;;5058950;28;20036;-65
2021/12/17 10:35:00;;;;;;;15.07;10.18;;;6.30;85.30;;;;;;5059778;28;20032;-67
2021/12/17 10:37:37;;;;;;;12.18;9.95;;;6.30;84.90;;;;;;5060107;28;20230;-66
2021/12/17 10:40:29;;;;;;;12.35;8.68;;;6.30;84.80;;;;;;5062406;28;20112;-68
2021/12/17 10:43:02;;;;;;;13.82;9.82;;;6.30;84.70;;;;;;5060772;28;20492;-67
2021/12/17 10:45:32;;;;;;;12.43;9.32;;;6.30;85.00;;;;;;5061390;28;20311;-65
2021/12/17 10:48:31;;;;;;;13.10;9.30;;;6.40;85.10;;;;;;5060636;28;20033;-68
2021/12/17 10:51:31;;;;;;;13.63;9.70;;;6.40;84.80;;;;;;5061456;28;20098;-65
2021/12/17 10:54:15;;;;;;;13.05;10.70;;;6.40;84.70;;;;;;5060614;28;20351;-65
2021/12/17 10:56:47;;;;;;;12.50;9.43;;;6.40;84.70;;;;;;5056240;28;20037;-68
2021/12/17 10:59:21;;;;;;;14.48;9.38;;;6.40;84.60;;;;;;5059803;28;20291;-65
2021/12/17 11:01:58;;;;;;;23.60;13.02;;;6.40;84.40;;;;;;5059099;28;20356;-65
2021/12/17 11:04:31;;;;;;;13.38;9.77;;;6.40;84.40;;;;;;5057044;28;20045;-65
2021/12/17 11:07:02;;;;;;;14.43;10.32;;;6.40;84.60;;;;;;5059337;28;20563;-65
2021/12/17 11:09:34;;;;;;;11.10;8.27;;;6.40;84.80;;;;;;5056922;28;20293;-67
2021/12/17 11:12:06;;;;;;;11.52;8.95;;;6.50;84.90;;;;;;5055869;28;20040;-64
2021/12/17 11:14:32;;;;;;;12.85;9.23;;;6.50;85.10;;;;;;5057114;28;20082;-65
2021/12/17 11:16:58;;;;;;;12.27;9.32;;;6.50;85.20;;;;;;5059731;28;20033;-67
2021/12/17 11:19:24;;;;;;;12.88;9.68;;;6.60;85.20;;;;;;5058126;28;20032;-65
2021/12/17 11:21:50;;;;;;;14.02;9.60;;;6.60;84.90;;;;;;5059756;28;20045;-68
2021/12/17 11:24:16;;;;;;;10.95;8.55;;;6.60;84.60;;;;;;5061209;28;20064;-67
2021/12/17 11:26:43;;;;;;;10.15;8.32;;;6.60;84.40;;;;;;5044603;28;20098;-67
2021/12/17 11:29:10;;;;;;;11.27;8.38;;;6.60;84.30;;;;;;5052245;28;20048;-67
2021/12/17 11:31:36;;;;;;;11.05;8.35;;;6.70;84.30;;;;;;5052928;28;20049;-67
2021/12/17 11:34:01;;;;;;;11.82;9.00;;;6.70;84.30;;;;;;5058156;28;20044;-67
2021/12/17 11:36:28;;;;;;;10.57;8.38;;;6.60;84.20;;;;;;5057586;28;20090;-66
2021/12/17 11:39:12;;;;;;;12.32;8.93;;;6.70;84.30;;;;;;5055636;28;22416;-67
2021/12/17 11:41:54;;;;;;;11.60;8.52;;;6.70;83.90;;;;;;5055789;28;20111;-68
2021/12/17 11:44:26;;;;;;;12.55;9.05;;;6.80;83.90;;;;;;5056890;28;20515;-67
2021/12/17 11:47:04;;;;;;;13.65;9.60;;;6.80;84.00;;;;;;5057592;28;20491;-67
2021/12/17 11:49:40;;;;;;;12.75;9.63;;;6.80;84.00;;;;;;5056796;28;20045;-67
2021/12/17 11:52:06;;;;;;;12.15;8.93;;;6.80;84.20;;;;;;5056161;28;20041;-67
2021/12/17 11:54:35;;;;;;;11.80;9.05;;;6.80;84.20;;;;;;5057186;28;20588;-67
2021/12/17 11:57:19;;;;;;;11.90;9.25;;;6.80;84.10;;;;;;5056395;28;20032;-66
2021/12/17 11:59:45;;;;;;;12.98;9.55;;;6.90;83.60;;;;;;5056265;28;20072;-65
2021/12/17 12:02:17;;;;;;;13.35;9.10;;;6.90;83.80;;;;;;5055803;28;20512;-65
2021/12/17 12:04:48;;;;;;;12.45;9.15;;;6.90;83.80;;;;;;5056017;28;20041;-67
2021/12/17 12:07:17;;;;;;;13.23;9.60;;;6.90;83.90;;;;;;5051876;28;20032;-66
2021/12/17 12:10:11;;;;;;;11.70;9.50;;;6.90;83.80;;;;;;5053119;28;20025;-67
2021/12/17 12:12:46;;;;;;;11.70;9.35;;;6.90;83.60;;;;;;5056458;28;20029;-68
2021/12/17 12:15:21;;;;;;;10.85;8.35;;;6.90;83.50;;;;;;5053380;28;20052;-65
2021/12/17 12:18:02;;;;;;;13.10;8.70;;;6.90;83.30;;;;;;5056606;28;20036;-68
2021/12/17 12:20:39;;;;;;;11.68;8.15;;;6.90;83.30;;;;;;5052452;28;20043;-67
2021/12/17 12:23:20;;;;;;;16.60;11.07;;;6.90;83.10;;;;;;5054682;28;20035;-64
2021/12/17 12:26:03;;;;;;;11.88;8.75;;;6.90;82.90;;;;;;5056228;28;20028;-67
2021/12/17 12:28:54;;;;;;;11.68;8.65;;;6.90;83.30;;;;;;5039728;28;20063;-66
2021/12/17 12:31:19;;;;;;;11.05;8.52;;;6.90;83.10;;;;;;5054627;28;20905;-66
2021/12/17 12:34:00;;;;;;;13.95;9.63;;;6.90;83.50;;;;;;5055695;28;20135;-64
2021/12/17 12:36:44;;;;;;;10.68;8.23;;;6.90;83.40;;;;;;5056056;28;20039;-66
2021/12/17 12:39:27;;;;;;;11.35;8.25;;;6.90;83.40;;;;;;5083041;27;20462;-65
2021/12/17 12:42:06;;;;;;;12.38;8.80;;;6.90;83.80;;;;;;5072728;28;20126;-65
2021/12/17 12:44:44;;;;;;;14.43;9.25;;;6.90;83.30;;;;;;5070328;28;20179;-66
2021/12/17 12:47:11;;;;;;;13.50;9.32;;;6.90;83.40;;;;;;5071805;28;20158;-65
2021/12/17 12:50:16;;;;;;;12.80;9.75;;;6.90;84.20;;;;;;5071524;28;20124;-66
2021/12/17 12:52:46;;;;;;;15.18;9.20;;;6.90;83.20;;;;;;5071682;28;20121;-65
2021/12/17 12:55:28;;;;;;;13.25;9.63;;;6.90;83.50;;;;;;5071001;28;20112;-66
2021/12/17 12:58:03;;;;;;;14.50;9.63;;;6.90;83.40;;;;;;5074182;28;20439;-66
2021/12/17 13:00:34;;;;;;;12.38;9.05;;;6.90;83.50;;;;;;5071188;28;20058;-65
2021/12/17 13:03:09;;;;;;;12.52;9.32;;;6.90;83.60;;;;;;5073607;28;20041;-65
2021/12/17 13:05:36;;;;;;;11.65;8.98;;;7.00;83.60;;;;;;5073843;28;20037;-65
2021/12/17 13:08:04;;;;;;;12.93;9.75;;;7.00;83.50;;;;;;5071122;28;20474;-65
2021/12/17 13:10:39;;;;;;;12.35;9.55;;;7.00;83.10;;;;;;5072257;28;20029;-65
2021/12/17 13:16:22;;;;;;;12.02;9.32;;;6.90;82.70;;;;;;5070796;28;20044;-66
2021/12/17 13:21:44;;;;;;;14.25;10.20;;;6.90;82.80;;;;;;5069291;28;20530;-66
2021/12/17 13:26:58;;;;;;;12.77;9.02;;;6.90;83.00;;;;;;5071589;28;20043;-66
2021/12/17 13:29:31;;;;;;;12.23;9.48;;;6.90;83.10;;;;;;5072561;28;20036;-66
2021/12/17 13:31:58;;;;;;;11.95;8.82;;;6.80;83.00;;;;;;5072083;28;20036;-66
2021/12/17 13:34:43;;;;;;;11.77;9.20;;;6.80;82.90;;;;;;5071904;28;20041;-67
2021/12/17 13:37:26;;;;;;;11.52;8.85;;;6.70;82.90;;;;;;5049465;28;20037;-66
2021/12/17 13:39:54;;;;;;;12.50;8.90;;;6.70;82.90;;;;;;5063382;28;20028;-67
2021/12/17 13:42:27;;;;;;;14.50;9.15;;;6.70;83.10;;;;;;5071325;28;20055;-67
2021/12/17 13:44:58;;;;;;;13.02;9.07;;;6.70;82.90;;;;;;5052268;28;20032;-67
2021/12/17 13:47:27;;;;;;;13.00;9.30;;;6.70;83.20;;;;;;5057190;28;20075;-66
2021/12/17 13:50:15;;;;;;;13.05;9.38;;;6.70;83.30;;;;;;5061685;28;20041;-66
2021/12/17 13:52:46;;;;;;;14.80;9.80;;;6.70;83.30;;;;;;5055792;28;20083;-67
2021/12/17 13:55:15;;;;;;;13.40;9.63;;;6.70;83.30;;;;;;5053097;28;20095;-66
2021/12/17 13:57:42;;;;;;;13.55;9.95;;;6.70;83.40;;;;;;5052192;28;20036;-65
2021/12/17 14:00:21;;;;;;;13.07;9.80;;;6.70;83.30;;;;;;5053397;28;20091;-66
2021/12/17 14:02:49;;;;;;;14.43;10.32;;;6.70;83.10;;;;;;5052649;28;20505;-66
2021/12/17 14:05:25;;;;;;;13.38;9.65;;;6.70;83.10;;;;;;5053269;28;20044;-66
2021/12/17 14:07:53;;;;;;;15.85;10.63;;;6.70;83.10;;;;;;5052943;28;20060;-66
2021/12/17 14:10:22;;;;;;;15.43;10.45;;;6.60;83.00;;;;;;5054043;28;20033;-66
2021/12/17 14:12:48;;;;;;;19.20;12.63;;;6.60;83.10;;;;;;5051705;28;20049;-66
2021/12/17 14:15:19;;;;;;;15.70;11.25;;;6.60;83.30;;;;;;5052678;28;20043;-64
2021/12/17 14:17:48;;;;;;;16.48;11.50;;;6.60;83.20;;;;;;5051441;28;20934;-66
2021/12/17 14:20:18;;;;;;;17.65;11.75;;;6.60;83.10;;;;;;5052440;28;20051;-65
2021/12/17 14:22:45;;;;;;;15.43;11.05;;;6.60;83.00;;;;;;5050098;28;20036;-66
2021/12/17 14:25:28;;;;;;;14.75;11.05;;;6.50;84.00;;;;;;5052701;28;20527;-66
2021/12/17 14:27:56;;;;;;;17.88;12.52;;;6.50;83.00;;;;;;5052724;28;20649;-65
2021/12/17 14:30:24;;;;;;;18.10;11.65;;;6.50;83.20;;;;;;5052084;28;20029;-66
2021/12/17 14:32:50;;;;;;;18.27;11.77;;;6.40;83.20;;;;;;5051311;28;20033;-65
2021/12/17 14:35:36;;;;;;;19.98;12.23;;;6.40;83.30;;;;;;5053402;28;20637;-66
2021/12/17 14:38:03;;;;;;;14.85;10.93;;;6.40;83.40;;;;;;5051127;28;20091;-65
2021/12/17 14:40:38;;;;;;;18.27;13.05;;;6.40;83.50;;;;;;5050583;28;20033;-66
2021/12/17 14:43:20;;;;;;;17.38;11.93;;;6.40;83.50;;;;;;5054614;28;20116;-66
2021/12/17 14:46:03;;;;;;;17.25;11.35;;;6.40;83.60;;;;;;5059137;28;20108;-66
2021/12/17 14:48:39;;;;;;;18.02;11.57;;;6.30;83.60;;;;;;5056675;28;20029;-66
2021/12/17 15:04:39;;;;;;;18.65;12.18;;;6.30;83.80;;;;;;5053763;28;20585;-66
2021/12/17 15:07:05;;;;;;;16.00;11.93;;;6.30;83.80;;;;;;5052346;28;20036;-66
2021/12/17 15:09:38;;;;;;;17.30;11.65;;;6.30;84.00;;;;;;5052219;28;20029;-66
2021/12/17 15:12:13;;;;;;;16.75;11.82;;;6.30;84.20;;;;;;5054746;28;20071;-66
2021/12/17 15:14:38;;;;;;;16.85;12.38;;;6.30;84.20;;;;;;5054171;28;20373;-66
2021/12/17 15:17:04;;;;;;;18.75;12.57;;;6.30;84.30;;;;;;5056506;28;20050;-66
2021/12/17 15:19:30;;;;;;;18.42;13.15;;;6.30;84.30;;;;;;5059287;28;20528;-66
2021/12/17 15:21:56;;;;;;;19.33;13.25;;;6.30;84.30;;;;;;5055635;28;20029;-66
2021/12/17 15:24:22;;;;;;;18.88;12.90;;;6.30;84.30;;;;;;5058758;28;20086;-66
2021/12/17 15:26:47;;;;;;;20.85;13.88;;;6.30;84.40;;;;;;5058985;28;20028;-67
2021/12/17 15:29:13;;;;;;;18.42;13.13;;;6.30;84.40;;;;;;5054988;28;20029;-67
2021/12/17 15:31:39;;;;;;;19.80;13.45;;;6.40;84.40;;;;;;5055061;28;20033;-66
2021/12/17 15:34:04;;;;;;;18.48;13.18;;;6.40;84.40;;;;;;5055789;28;20040;-66
2021/12/17 15:36:30;;;;;;;19.85;13.82;;;6.40;84.40;;;;;;5055971;28;20040;-66
2021/12/17 15:38:55;;;;;;;18.67;12.75;;;6.40;84.40;;;;;;5055800;28;20033;-66
2021/12/17 15:41:21;;;;;;;18.73;13.10;;;6.40;84.40;;;;;;5058320;28;20028;-66
2021/12/17 15:43:47;;;;;;;17.85;12.88;;;6.40;84.40;;;;;;5056460;28;20396;-66
2021/12/17 15:46:12;;;;;;;18.25;12.77;;;6.40;84.40;;;;;;5055795;28;20045;-67
2021/12/17 15:48:38;;;;;;;17.08;12.57;;;6.40;85.20;;;;;;5054700;28;20032;-66
2021/12/17 15:51:06;;;;;;;17.83;12.30;;;6.40;84.40;;;;;;5056992;28;20039;-66
2021/12/17 15:53:32;;;;;;;17.75;13.00;;;6.40;84.40;;;;;;5056491;28;20052;-66
2021/12/17 15:55:59;;;;;;;17.92;13.02;;;6.40;84.40;;;;;;5056611;28;20482;-67
2021/12/17 15:58:25;;;;;;;15.57;11.68;;;6.40;84.30;;;;;;5054591;28;20492;-67
2021/12/17 16:00:50;;;;;;;17.90;13.07;;;6.40;84.20;;;;;;5058235;28;20036;-66
2021/12/17 16:03:21;;;;;;;16.98;11.88;;;6.40;84.30;;;;;;5055366;28;20411;-66
2021/12/17 16:05:47;;;;;;;16.08;11.93;;;6.40;84.30;;;;;;5055976;28;20035;-67
2021/12/17 16:08:13;;;;;;;18.08;12.98;;;6.40;84.20;;;;;;5055529;28;20033;-66
2021/12/17 16:18:57;;;;;;;14.73;11.50;;;6.50;84.20;;;;;;5054728;28;20047;-67
2021/12/17 16:21:23;;;;;;;16.92;12.05;;;6.50;84.20;;;;;;5056629;28;20033;-66
2021/12/17 16:23:53;;;;;;;17.23;12.10;;;6.50;84.20;;;;;;5056774;28;20037;-67
2021/12/17 16:26:22;;;;;;;17.15;12.65;;;6.50;84.20;;;;;;5056099;28;20039;-67
2021/12/17 16:28:49;;;;;;;16.42;12.30;;;6.60;84.20;;;;;;5055030;28;20040;-66
2021/12/17 16:31:23;;;;;;;16.00;11.65;;;6.60;84.20;;;;;;5055262;28;20090;-66